createdAt,value
2022-12-15T00:02:10.626Z,24.23
2022-12-15T00:04:57.061Z,23.13
2022-12-15T00:07:42.008Z,22.23
2022-12-15T00:10:26.778Z,21.77
2022-12-15T00:13:11.713Z,24.13
2022-12-15T00:15:56.763Z,23.80
2022-12-15T00:18:42.300Z,20.70
2022-12-15T00:21:28.841Z,19.73
2022-12-15T00:24:13.788Z,25.77
2022-12-15T00:26:58.700Z,19.83
2022-12-15T00:29:43.816Z,25.60
2022-12-15T00:32:28.833Z,24.50
2022-12-15T00:35:13.939Z,21.53
2022-12-15T00:38:00.547Z,17.10
2022-12-15T00:40:28.052Z,20.00
2022-12-15T00:42:55.492Z,24.60
2022-12-15T00:45:43.424Z,26.47
2022-12-15T00:48:09.880Z,28.00
2022-12-15T00:50:55.811Z,24.93
2022-12-15T00:53:43.231Z,23.53
2022-12-15T00:56:28.514Z,21.50
2022-12-15T00:59:14.043Z,22.40
2022-12-15T01:01:59.370Z,23.17
2022-12-15T01:04:44.899Z,22.83
2022-12-15T01:07:29.577Z,23.63
2022-12-15T01:10:15.965Z,25.23
2022-12-15T01:13:01.180Z,25.07
2022-12-15T01:15:45.933Z,22.70
2022-12-15T01:18:31.371Z,20.50
2022-12-15T01:20:59.609Z,26.30
2022-12-15T01:23:27.369Z,25.63
2022-12-15T01:25:57.128Z,29.03
2022-12-15T01:28:24.765Z,27.33
2022-12-15T01:30:52.565Z,22.53
2022-12-15T01:33:20.605Z,30.33
2022-12-15T01:35:56.410Z,33.03
2022-12-15T01:38:23.854Z,24.50
2022-12-15T01:40:53.081Z,22.37
2022-12-15T01:43:24.376Z,24.53
2022-12-15T01:45:59.312Z,25.03
2022-12-15T01:48:35.256Z,33.50
2022-12-15T01:51:11.146Z,27.40
2022-12-15T01:53:41.576Z,24.37
2022-12-15T01:56:10.355Z,24.43
2022-12-15T01:58:42.602Z,24.23
2022-12-15T02:04:08.248Z,24.63
2022-12-15T02:06:36.174Z,22.43
2022-12-15T02:09:03.988Z,26.63
2022-12-15T02:11:46.383Z,19.10
2022-12-15T02:14:21.691Z,25.20
2022-12-15T02:17:05.041Z,25.40
2022-12-15T02:19:57.640Z,26.00
2022-12-15T02:22:31.448Z,21.13
2022-12-15T02:25:13.763Z,19.10
2022-12-15T02:27:53.116Z,20.63
2022-12-15T02:30:47.029Z,25.90
2022-12-15T02:33:18.882Z,21.70
2022-12-15T02:35:55.120Z,27.23
2022-12-15T02:38:31.059Z,22.40
2022-12-15T02:41:00.354Z,24.73
2022-12-15T02:43:29.147Z,26.80
2022-12-15T02:46:06.058Z,21.70
2022-12-15T02:48:39.141Z,20.20
2022-12-15T02:51:16.051Z,21.57
2022-12-15T02:54:14.252Z,25.87
2022-12-15T02:56:46.213Z,21.60
2022-12-15T02:59:17.792Z,20.83
2022-12-15T03:01:52.576Z,20.77
2022-12-15T03:04:21.596Z,26.97
2022-12-15T03:07:00.540Z,19.47
2022-12-15T03:09:28.770Z,20.60
2022-12-15T03:11:56.227Z,28.20
2022-12-15T03:14:25.329Z,19.90
2022-12-15T03:16:54.319Z,25.97
2022-12-15T03:19:22.328Z,20.10
2022-12-15T03:21:49.789Z,23.33
2022-12-15T03:24:17.264Z,23.13
2022-12-15T03:26:48.465Z,25.57
2022-12-15T03:29:15.891Z,21.93
2022-12-15T03:31:43.472Z,20.63
2022-12-15T03:34:12.622Z,24.90
2022-12-15T03:36:40.059Z,22.87
2022-12-15T03:39:07.680Z,26.80
2022-12-15T03:41:35.152Z,24.03
2022-12-15T03:44:02.959Z,24.43
2022-12-15T03:46:30.458Z,21.73
2022-12-15T03:48:58.418Z,24.27
2022-12-15T03:51:27.196Z,25.53
2022-12-15T03:53:54.700Z,24.40
2022-12-15T03:56:22.139Z,24.00
2022-12-15T03:58:49.583Z,23.77
2022-12-15T04:01:23.877Z,24.57
2022-12-15T04:03:55.516Z,26.93
2022-12-15T04:06:27.441Z,19.37
2022-12-15T04:08:54.867Z,25.33
2022-12-15T04:11:22.314Z,24.63
2022-12-15T04:13:49.733Z,30.90
2022-12-15T04:16:20.195Z,21.63
2022-12-15T04:19:08.332Z,26.90
2022-12-15T04:21:36.142Z,21.20
2022-12-15T04:24:21.060Z,24.40
2022-12-15T04:27:05.887Z,25.40
2022-12-15T04:29:50.951Z,24.70
2022-12-15T04:32:36.252Z,23.60
2022-12-15T04:35:21.599Z,18.43
2022-12-15T04:38:08.077Z,21.27
2022-12-15T04:40:53.661Z,22.33
2022-12-15T04:43:38.651Z,21.80
2022-12-15T04:46:24.194Z,23.23
2022-12-15T04:49:09.350Z,26.77
2022-12-15T04:51:54.448Z,30.33
2022-12-15T04:54:41.065Z,25.10
2022-12-15T04:57:25.779Z,25.37
2022-12-15T05:00:10.593Z,21.83
2022-12-15T05:02:55.380Z,21.87
2022-12-15T05:05:40.630Z,30.20
2022-12-15T05:08:25.855Z,29.57
2022-12-15T05:11:12.324Z,22.10
2022-12-15T05:13:57.089Z,32.00
2022-12-15T05:16:41.978Z,24.20
2022-12-15T05:19:27.148Z,22.63
2022-12-15T05:22:12.088Z,18.67
2022-12-15T05:24:57.210Z,27.80
2022-12-15T05:27:43.492Z,22.27
2022-12-15T05:30:29.088Z,23.70
2022-12-15T05:32:56.546Z,26.03
2022-12-15T05:35:24.068Z,30.53
2022-12-15T05:37:51.604Z,27.00
2022-12-15T05:40:19.065Z,27.77
2022-12-15T05:42:50.251Z,24.00
2022-12-15T05:45:17.892Z,28.70
2022-12-15T05:47:45.547Z,22.83
2022-12-15T05:50:12.996Z,28.03
2022-12-15T05:52:42.911Z,33.10
2022-12-15T05:55:14.041Z,27.13
2022-12-15T05:57:42.487Z,28.40
2022-12-15T06:00:12.107Z,29.10
2022-12-15T06:02:39.982Z,26.87
2022-12-15T06:05:08.704Z,25.87
2022-12-15T06:07:37.303Z,30.07
2022-12-15T06:10:05.754Z,26.03
2022-12-15T06:12:33.231Z,28.13
2022-12-15T06:15:00.669Z,27.03
2022-12-15T06:17:29.410Z,34.77
2022-12-15T06:19:56.826Z,25.90
2022-12-15T06:22:24.301Z,29.43
2022-12-15T06:24:51.887Z,27.40
2022-12-15T06:27:19.772Z,26.70
2022-12-15T06:29:47.199Z,24.43
2022-12-15T06:32:14.639Z,29.37
2022-12-15T06:34:43.376Z,23.33
2022-12-15T06:37:10.785Z,24.77
2022-12-15T06:39:38.212Z,24.90
2022-12-15T06:42:05.746Z,25.47
2022-12-15T06:44:33.227Z,23.60
2022-12-15T06:47:00.732Z,26.80
2022-12-15T06:49:28.268Z,25.87
2022-12-15T06:51:57.125Z,22.67
2022-12-15T06:54:24.725Z,22.30
2022-12-15T06:56:52.999Z,23.83
2022-12-15T06:59:20.421Z,24.90
2022-12-15T07:01:48.272Z,27.13
2022-12-15T07:04:16.005Z,25.03
2022-12-15T07:06:43.812Z,26.63
2022-12-15T07:09:16.539Z,26.53
2022-12-15T07:11:44.019Z,22.43
2022-12-15T07:14:11.739Z,22.23
2022-12-15T07:16:39.328Z,26.23
2022-12-15T07:19:06.851Z,23.13
2022-12-15T07:21:34.280Z,26.13
2022-12-15T07:24:02.624Z,27.60
2022-12-15T07:26:31.689Z,26.20
2022-12-15T07:28:59.174Z,26.33
2022-12-15T07:31:26.994Z,25.47
2022-12-15T07:33:55.026Z,20.47
2022-12-15T07:36:22.627Z,29.93
2022-12-15T07:38:51.176Z,28.00
2022-12-15T07:41:20.155Z,22.93
2022-12-15T07:43:49.260Z,25.80
2022-12-15T07:46:17.583Z,22.47
2022-12-15T07:48:50.255Z,24.90
2022-12-15T07:51:20.846Z,24.90
2022-12-15T07:53:49.710Z,18.63
2022-12-15T07:56:18.132Z,19.40
2022-12-15T07:58:45.764Z,21.53
2022-12-15T08:01:15.320Z,22.60
2022-12-15T08:03:42.862Z,22.80
2022-12-15T08:06:13.062Z,22.43
2022-12-15T08:08:41.300Z,25.07
2022-12-15T08:11:10.001Z,23.37
2022-12-15T08:14:02.032Z,25.67
2022-12-15T08:16:27.849Z,26.27
2022-12-15T08:18:56.936Z,23.00
2022-12-15T08:21:25.426Z,20.53
2022-12-15T08:23:53.003Z,23.57
2022-12-15T08:26:23.802Z,19.33
2022-12-15T08:28:54.462Z,26.07
2022-12-15T08:31:24.005Z,23.17
2022-12-15T08:33:52.856Z,22.00
2022-12-15T08:36:23.416Z,19.90
2022-12-15T08:38:50.990Z,21.27
2022-12-15T08:41:20.802Z,25.23
2022-12-15T08:43:49.511Z,22.23
2022-12-15T08:46:17.930Z,23.27
2022-12-15T08:48:45.864Z,21.17
2022-12-15T08:51:15.192Z,19.10
2022-12-15T08:53:43.101Z,25.03
2022-12-15T08:56:12.828Z,24.30
2022-12-15T08:58:40.826Z,19.57
2022-12-15T09:01:12.970Z,21.93
2022-12-15T09:03:43.704Z,20.60
2022-12-15T09:06:16.168Z,18.70
2022-12-15T09:08:43.913Z,20.97
2022-12-15T09:11:15.987Z,24.13
2022-12-15T09:13:43.445Z,20.93
2022-12-15T09:16:14.327Z,20.87
2022-12-15T09:18:43.180Z,23.27
2022-12-15T09:21:11.301Z,19.03
2022-12-15T09:23:40.435Z,20.03
2022-12-15T09:26:10.042Z,19.37
2022-12-15T09:28:38.300Z,22.93
2022-12-15T09:31:07.024Z,21.00
2022-12-15T09:33:35.386Z,19.50
2022-12-15T09:36:03.435Z,19.83
2022-12-15T09:38:31.142Z,21.43
2022-12-15T09:41:09.721Z,17.43
2022-12-15T09:43:43.117Z,21.67
2022-12-15T09:46:22.068Z,19.07
2022-12-15T09:48:50.652Z,17.40
2022-12-15T09:51:19.376Z,21.53
2022-12-15T09:53:55.926Z,23.40
2022-12-15T09:56:35.580Z,22.33
2022-12-15T09:59:06.735Z,24.83
2022-12-15T10:01:39.770Z,22.83
2022-12-15T10:04:10.182Z,23.37
2022-12-15T10:06:40.421Z,20.10
2022-12-15T10:09:20.471Z,20.20
2022-12-15T10:11:53.085Z,21.90
2022-12-15T10:14:26.876Z,22.90
2022-12-15T10:17:03.028Z,21.23
2022-12-15T10:19:39.074Z,21.73
2022-12-15T10:22:07.015Z,22.10
2022-12-15T10:27:35.952Z,19.93
2022-12-15T10:30:05.024Z,24.50
2022-12-15T10:35:30.748Z,21.20
2022-12-15T10:38:00.958Z,23.67
2022-12-15T10:40:50.697Z,23.67
2022-12-15T10:43:27.412Z,23.90
2022-12-15T10:46:03.070Z,21.73
2022-12-15T10:48:30.898Z,20.13
2022-12-15T10:51:15.846Z,22.10
2022-12-15T10:56:34.784Z,21.13
2022-12-15T10:59:05.726Z,22.57
2022-12-15T11:01:35.485Z,20.43
2022-12-15T11:04:03.372Z,18.97
2022-12-15T11:06:33.657Z,19.10
2022-12-15T11:09:09.680Z,18.93
2022-12-15T11:12:05.004Z,23.20
2022-12-15T11:14:44.081Z,19.50
2022-12-15T11:17:16.074Z,19.67
2022-12-15T11:19:52.185Z,35.77
2022-12-15T11:22:27.279Z,19.77
2022-12-15T11:24:57.929Z,21.10
2022-12-15T11:27:28.043Z,18.00
2022-12-15T11:30:05.764Z,25.73
2022-12-15T11:32:34.891Z,22.13
2022-12-15T11:35:02.482Z,20.83
2022-12-15T11:37:48.512Z,23.60
2022-12-15T11:40:39.669Z,20.03
2022-12-15T11:43:21.781Z,20.70
2022-12-15T11:46:02.384Z,19.70
2022-12-15T11:48:36.668Z,18.37
2022-12-15T11:51:07.339Z,19.83
2022-12-15T11:53:45.618Z,22.23
2022-12-15T11:56:21.457Z,21.13
2022-12-15T11:59:00.959Z,21.83
2022-12-15T12:01:53.898Z,20.77
2022-12-15T12:04:25.651Z,20.17
2022-12-15T12:07:02.654Z,18.80
2022-12-15T12:09:33.033Z,21.70
2022-12-15T12:12:08.970Z,21.80
2022-12-15T12:14:45.042Z,22.20
2022-12-15T12:17:23.408Z,19.53
2022-12-15T12:19:55.144Z,19.07
2022-12-15T12:22:24.968Z,20.17
2022-12-15T12:24:55.779Z,20.47
2022-12-15T12:27:28.591Z,18.77
2022-12-15T12:30:00.992Z,21.43
2022-12-15T12:32:36.712Z,18.97
2022-12-15T12:35:32.248Z,19.17
2022-12-15T12:38:03.361Z,18.97
2022-12-15T12:40:56.275Z,19.10
2022-12-15T12:43:32.950Z,18.13
2022-12-15T12:46:04.309Z,19.33
2022-12-15T12:48:36.293Z,21.17
2022-12-15T12:51:14.057Z,21.80
2022-12-15T12:53:41.852Z,17.37
2022-12-15T12:56:30.280Z,16.87
2022-12-15T12:58:57.890Z,18.17
2022-12-15T13:01:32.516Z,20.90
2022-12-15T13:04:12.676Z,18.20
2022-12-15T13:07:02.949Z,18.17
2022-12-15T13:09:41.710Z,20.13
2022-12-15T13:12:53.474Z,19.37
2022-12-15T13:15:41.521Z,20.37
2022-12-15T13:18:14.636Z,17.60
2022-12-15T13:20:44.869Z,21.87
2022-12-15T13:23:37.769Z,17.33
2022-12-15T13:26:14.068Z,20.37
2022-12-15T13:28:46.575Z,19.27
2022-12-15T13:31:43.714Z,17.10
2022-12-15T13:34:15.287Z,19.43
2022-12-15T13:37:00.917Z,17.90
2022-12-15T13:39:53.902Z,21.40
2022-12-15T13:42:41.633Z,19.77
2022-12-15T13:45:36.421Z,17.60
2022-12-15T13:48:16.766Z,22.80
2022-12-15T13:50:51.857Z,18.17
2022-12-15T13:53:22.855Z,22.97
2022-12-15T13:56:07.823Z,18.27
2022-12-15T13:58:41.896Z,20.17
2022-12-15T14:01:21.103Z,19.13
2022-12-15T14:04:05.336Z,18.40
2022-12-15T14:06:37.763Z,19.17
2022-12-15T14:09:07.765Z,18.70
2022-12-15T14:11:52.338Z,17.73
2022-12-15T14:14:23.744Z,19.20
2022-12-15T14:16:58.130Z,18.07
2022-12-15T14:19:26.555Z,18.23
2022-12-15T14:21:55.522Z,19.10
2022-12-15T14:24:41.986Z,20.13
2022-12-15T14:27:09.526Z,18.00
2022-12-15T14:29:37.033Z,20.53
2022-12-15T14:32:05.317Z,20.33
2022-12-15T14:34:34.554Z,17.77
2022-12-15T14:37:04.871Z,19.60
2022-12-15T14:39:38.105Z,18.97
2022-12-15T14:42:07.368Z,16.80
2022-12-15T14:44:39.200Z,21.37
2022-12-15T14:47:09.184Z,18.73
2022-12-15T14:49:40.759Z,19.63
2022-12-15T14:52:21.407Z,18.00
2022-12-15T14:54:57.600Z,18.07
2022-12-15T14:57:26.889Z,21.33
2022-12-15T14:59:54.429Z,16.20
2022-12-15T15:02:26.684Z,17.07
2022-12-15T15:03:06.628Z,19.40
2022-12-15T15:03:12.305Z,21.77
2022-12-15T15:05:02.363Z,18.13
2022-12-15T15:07:31.543Z,16.23
2022-12-15T15:10:01.165Z,19.73
2022-12-15T15:12:41.808Z,16.13
2022-12-15T15:15:15.815Z,16.17
2022-12-15T15:17:46.537Z,18.53
2022-12-15T15:20:19.215Z,18.30
2022-12-15T15:22:47.914Z,19.27
2022-12-15T15:25:39.939Z,19.37
2022-12-15T15:28:16.172Z,18.63
2022-12-15T15:30:48.066Z,18.10
2022-12-15T15:33:15.913Z,21.40
2022-12-15T15:35:44.560Z,16.67
2022-12-15T15:38:24.599Z,17.00
2022-12-15T15:40:55.036Z,16.67
2022-12-15T15:43:23.600Z,20.30
2022-12-15T15:45:52.141Z,25.80
2022-12-15T15:48:23.988Z,21.53
2022-12-15T15:50:51.512Z,24.37
2022-12-15T15:53:21.007Z,24.83
2022-12-15T15:55:50.375Z,24.17
2022-12-15T15:58:19.176Z,22.83
2022-12-15T16:00:46.712Z,21.57
2022-12-15T16:03:14.397Z,23.57
2022-12-15T16:05:42.709Z,23.17
2022-12-15T16:08:14.545Z,17.90
2022-12-15T16:10:42.751Z,25.53
2022-12-15T16:13:10.701Z,23.13
2022-12-15T16:15:39.557Z,20.07
2022-12-15T16:18:07.065Z,16.73
2022-12-15T16:20:35.170Z,22.67
2022-12-15T16:23:04.480Z,21.40
2022-12-15T16:25:42.452Z,21.00
2022-12-15T16:28:16.937Z,21.87
2022-12-15T16:30:45.874Z,22.20
2022-12-15T16:33:14.611Z,21.53
2022-12-15T16:35:43.718Z,15.53
2022-12-15T16:38:15.475Z,22.43
2022-12-15T16:40:43.036Z,18.20
2022-12-15T16:43:14.773Z,15.83
2022-12-15T16:45:44.307Z,21.33
2022-12-15T16:48:13.313Z,19.33
2022-12-15T16:50:42.215Z,17.33
2022-12-15T16:53:16.109Z,20.50
2022-12-15T16:55:43.651Z,15.80
2022-12-15T16:58:15.481Z,17.20
2022-12-15T17:00:43.276Z,23.23
2022-12-15T17:03:14.820Z,22.47
2022-12-15T17:05:43.683Z,17.23
2022-12-15T17:08:17.428Z,17.70
2022-12-15T17:10:45.124Z,23.30
2022-12-15T17:13:20.565Z,20.70
2022-12-15T17:15:48.086Z,21.40
2022-12-15T17:18:16.868Z,18.53
2022-12-15T17:20:44.318Z,17.17
2022-12-15T17:23:15.365Z,18.57
2022-12-15T17:28:34.089Z,18.30
2022-12-15T17:31:01.590Z,23.73
2022-12-15T17:33:31.754Z,21.33
2022-12-15T17:36:02.169Z,17.73
2022-12-15T17:38:29.750Z,18.70
2022-12-15T17:40:57.547Z,19.07
2022-12-15T17:43:32.128Z,27.70
2022-12-15T17:46:03.040Z,20.37
2022-12-15T17:48:32.314Z,23.37
2022-12-15T17:51:00.082Z,24.60
2022-12-15T17:53:27.607Z,21.70
2022-12-15T17:55:55.154Z,29.83
2022-12-15T17:58:24.377Z,31.60
2022-12-15T18:00:53.580Z,36.77
2022-12-15T18:03:22.059Z,33.27
2022-12-15T18:05:52.170Z,29.43
2022-12-15T18:08:20.693Z,34.77
2022-12-15T18:10:50.039Z,33.10
2022-12-15T18:13:19.143Z,27.73
2022-12-15T18:15:47.684Z,32.00
2022-12-15T18:18:16.222Z,29.73
2022-12-15T18:20:43.940Z,26.57
2022-12-15T18:23:15.732Z,33.90
2022-12-15T18:25:44.264Z,33.07
2022-12-15T18:28:19.840Z,29.77
2022-12-15T18:30:47.750Z,32.63
2022-12-15T18:33:15.488Z,26.10
2022-12-15T18:35:45.008Z,32.73
2022-12-15T18:38:17.175Z,28.27
2022-12-15T18:40:46.555Z,27.40
2022-12-15T18:43:16.143Z,31.20
2022-12-15T18:45:43.684Z,31.27
2022-12-15T18:48:17.299Z,28.07
2022-12-15T18:50:44.976Z,31.10
2022-12-15T18:53:19.179Z,25.60
2022-12-15T18:55:47.848Z,29.40
2022-12-15T18:58:21.378Z,30.50
2022-12-15T19:00:49.426Z,35.03
2022-12-15T19:03:16.970Z,31.13
2022-12-15T19:05:44.756Z,32.37
2022-12-15T19:08:15.448Z,36.50
2022-12-15T19:10:49.478Z,33.97
2022-12-15T19:13:18.861Z,29.80
2022-12-15T19:15:46.885Z,27.03
2022-12-15T19:18:33.180Z,36.00
2022-12-15T19:21:18.837Z,26.43
2022-12-15T19:23:47.605Z,27.63
2022-12-15T19:26:15.288Z,29.80
2022-12-15T19:28:42.770Z,27.97
2022-12-15T19:31:10.225Z,28.80
2022-12-15T19:33:37.775Z,30.07
2022-12-15T19:36:11.890Z,42.47
2022-12-15T19:38:39.342Z,34.63
2022-12-15T19:41:08.146Z,29.73
2022-12-15T19:43:36.225Z,28.03
2022-12-15T19:46:04.025Z,27.33
2022-12-15T19:48:31.473Z,26.83
2022-12-15T19:50:58.908Z,29.23
2022-12-15T19:53:28.593Z,32.80
2022-12-15T19:55:58.165Z,37.13
2022-12-15T19:58:29.214Z,35.57
2022-12-15T20:00:58.309Z,32.47
2022-12-15T20:03:26.801Z,33.37
2022-12-15T20:05:55.684Z,30.93
2022-12-15T20:08:24.988Z,30.27
2022-12-15T20:10:53.754Z,29.53
2022-12-15T20:13:22.181Z,31.03
2022-12-15T20:15:51.978Z,26.43
2022-12-15T20:18:19.929Z,35.40
2022-12-15T20:20:48.765Z,34.10
2022-12-15T20:23:18.249Z,29.67
2022-12-15T20:25:46.105Z,30.67
2022-12-15T20:28:19.514Z,28.53
2022-12-15T20:30:47.556Z,26.93
2022-12-15T20:33:16.820Z,32.67
2022-12-15T20:35:45.357Z,30.67
2022-12-15T20:38:26.060Z,26.17
2022-12-15T20:40:53.810Z,31.17
2022-12-15T20:43:22.773Z,34.27
2022-12-15T20:45:58.229Z,35.60
2022-12-15T20:48:27.301Z,30.67
2022-12-15T20:50:54.811Z,34.17
2022-12-15T20:53:23.735Z,30.20
2022-12-15T20:55:52.547Z,34.30
2022-12-15T20:58:20.600Z,31.23
2022-12-15T21:00:49.320Z,31.67
2022-12-15T21:03:22.722Z,29.10
2022-12-15T21:05:53.112Z,30.40
2022-12-15T21:08:23.063Z,30.33
2022-12-15T21:10:52.179Z,29.70
2022-12-15T21:13:23.711Z,31.17
2022-12-15T21:15:51.348Z,32.43
2022-12-15T21:19:03.661Z,27.23
2022-12-15T21:21:16.451Z,26.97
2022-12-15T21:23:43.913Z,31.03
2022-12-15T21:26:11.572Z,32.57
2022-12-15T21:28:39.005Z,31.27
2022-12-15T21:31:06.733Z,33.53
2022-12-15T21:33:34.455Z,31.97
2022-12-15T21:36:02.015Z,30.23
2022-12-15T21:38:33.655Z,27.53
2022-12-15T21:41:03.796Z,31.70
2022-12-15T21:43:35.828Z,38.20
2022-12-15T21:46:05.394Z,31.13
2022-12-15T21:48:50.160Z,38.97
2022-12-15T21:51:18.469Z,33.20
2022-12-15T21:53:47.514Z,30.47
2022-12-15T21:56:16.611Z,29.20
2022-12-15T21:58:44.245Z,29.10
2022-12-15T22:01:14.820Z,33.23
2022-12-15T22:03:45.040Z,32.63
2022-12-15T22:06:17.854Z,35.10
2022-12-15T22:08:49.982Z,28.60
2022-12-15T22:11:21.747Z,36.90
2022-12-15T22:13:50.083Z,29.90
2022-12-15T22:16:17.924Z,31.50
2022-12-15T22:18:47.286Z,30.30
2022-12-15T22:21:15.446Z,31.50
2022-12-15T22:23:42.904Z,26.03
2022-12-15T22:26:19.936Z,31.33
2022-12-15T22:28:47.387Z,28.87
2022-12-15T22:31:15.321Z,29.70
2022-12-15T22:33:42.827Z,24.37
2022-12-15T22:36:10.402Z,29.90
2022-12-15T22:38:37.947Z,28.67
2022-12-15T22:41:06.656Z,28.17
2022-12-15T22:43:38.606Z,32.20
2022-12-15T22:46:08.001Z,31.90
2022-12-15T22:48:37.968Z,29.17
2022-12-15T22:51:06.296Z,28.67
2022-12-15T22:53:35.599Z,32.53
2022-12-15T22:56:05.864Z,28.67
2022-12-15T22:58:38.332Z,27.63
2022-12-15T23:01:06.723Z,30.23
2022-12-15T23:03:34.743Z,32.93
2022-12-15T23:06:03.464Z,35.67
2022-12-15T23:08:31.234Z,25.00
2022-12-15T23:11:25.018Z,32.20
2022-12-15T23:13:53.772Z,28.33
2022-12-15T23:16:21.793Z,33.23
2022-12-15T23:18:50.685Z,30.43
2022-12-15T23:21:19.556Z,26.20
2022-12-15T23:23:47.068Z,27.10
2022-12-15T23:26:15.787Z,25.43
2022-12-15T23:28:43.366Z,31.07
2022-12-15T23:31:12.193Z,30.63
2022-12-15T23:33:41.566Z,28.13
2022-12-15T23:36:10.102Z,30.37
2022-12-15T23:38:37.520Z,32.70
2022-12-15T23:41:05.485Z,30.90
2022-12-15T23:43:34.876Z,24.77
2022-12-15T23:46:05.126Z,24.97
2022-12-15T23:48:35.727Z,20.30
2022-12-15T23:51:05.141Z,29.03
2022-12-15T23:53:33.227Z,29.57
2022-12-15T23:56:09.447Z,29.17
2022-12-15T23:58:37.555Z,26.63
